TimeCDT,TemperatureF,Dew PointF,Humidity,Sea Level PressureIn,VisibilityMPH,Wind Direction,Wind SpeedMPH,Gust SpeedMPH,PrecipitationIn,Events,Conditions,WindDirDegrees,DateUTC
12:54 AM,35.6,26.6,70,30.29,10.0,North,3.5,-,N/A,,Clear,350,2012-10-28 05:54:00
1:54 AM,34.0,26.1,73,30.29,10.0,North,3.5,-,N/A,,Clear,360,2012-10-28 06:54:00
2:54 AM,33.1,26.1,75,30.30,10.0,North,3.5,-,N/A,,Clear,360,2012-10-28 07:54:00
3:54 AM,32.0,25.0,75,30.29,10.0,NNW,3.5,-,N/A,,Clear,340,2012-10-28 08:54:00
4:54 AM,30.9,25.0,79,30.29,10.0,NNW,3.5,-,N/A,,Clear,340,2012-10-28 09:54:00
5:54 AM,32.0,25.0,75,30.30,10.0,Variable,3.5,-,N/A,,Scattered Clouds,0,2012-10-28 10:54:00
6:54 AM,33.1,25.0,72,30.30,10.0,Calm,Calm,-,N/A,,Overcast,0,2012-10-28 11:54:00
7:54 AM,34.0,26.1,73,30.30,10.0,NNW,4.6,-,N/A,,Overcast,340,2012-10-28 12:54:00
8:39 AM,35.6,28.4,75,30.28,10.0,Variable,5.8,-,N/A,,Overcast,0,2012-10-28 13:39:00
8:54 AM,36.0,28.0,73,30.30,10.0,North,6.9,-,N/A,,Overcast,10,2012-10-28 13:54:00
9:51 AM,39.2,30.2,70,30.28,10.0,NNE,5.8,-,N/A,,Overcast,30,2012-10-28 14:51:00
9:54 AM,41.0,30.9,67,30.30,10.0,NE,5.8,-,N/A,,Overcast,40,2012-10-28 14:54:00
10:54 AM,44.1,32.0,63,30.30,10.0,NE,9.2,-,N/A,,Mostly Cloudy,50,2012-10-28 15:54:00
11:54 AM,48.0,34.0,58,30.30,10.0,NE,9.2,16.1,N/A,,Partly Cloudy,50,2012-10-28 16:54:00
12:54 PM,48.0,30.9,52,30.28,10.0,ENE,12.7,18.4,N/A,,Partly Cloudy,60,2012-10-28 17:54:00
1:54 PM,51.1,30.0,44,30.27,10.0,NE,8.1,19.6,N/A,,Mostly Cloudy,50,2012-10-28 18:54:00
2:54 PM,48.0,28.0,46,30.26,10.0,North,5.8,-,N/A,,Mostly Cloudy,360,2012-10-28 19:54:00
3:54 PM,51.1,27.0,39,30.26,10.0,North,9.2,-,N/A,,Mostly Cloudy,10,2012-10-28 20:54:00
4:54 PM,48.0,27.0,44,30.26,10.0,NNE,4.6,-,N/A,,Partly Cloudy,20,2012-10-28 21:54:00
5:54 PM,46.9,28.0,48,30.27,10.0,North,6.9,-,N/A,,Partly Cloudy,10,2012-10-28 22:54:00
6:54 PM,44.1,28.0,53,30.28,10.0,North,5.8,-,N/A,,Clear,10,2012-10-28 23:54:00
7:54 PM,41.0,28.0,60,30.28,10.0,North,3.5,-,N/A,,Clear,360,2012-10-29 00:54:00
8:54 PM,39.0,28.0,65,30.30,10.0,Calm,Calm,-,N/A,,Clear,0,2012-10-29 01:54:00
9:54 PM,37.0,28.0,70,30.31,10.0,Calm,Calm,-,N/A,,Clear,0,2012-10-29 02:54:00
10:54 PM,34.0,28.0,79,30.31,10.0,Calm,Calm,-,N/A,,Clear,0,2012-10-29 03:54:00
11:54 PM,33.1,28.0,82,30.31,10.0,NNW,3.5,-,N/A,,Clear,340,2012-10-29 04:54:00